메인 페이지
METAR-TAF:

METAR-TAF

공항 :

은자메나, 차드

위도: 12-08N, 경도: 015-02E, 고도: 295m

현재 날씨관측

예보는 1 시간 11분 전, 00:00시(UTC)에 발표되었습니다.
무풍
온도 22°C
습도 94%
기압 1014 hPa
시정 10km 이상
고도 3000ft 상공 구름 조금

METAR: FTTJ 150000Z 00000KT 9999 FEW030 22/21 Q1014 NOSIG

시각: 02:11 (01:11 UTC)

예보

예보는 2 시간 11분 전, 23:00시(UTC)에 발표되었습니다.
예보 대상 시간: 15일 00시부터 16일 06시까지 (UTC)
남서6kt
시정 10km 이상
고도 3000ft 상공 구름 조금
일시적
15일 18시부터 15일 23시까지 (UTC)
여러 방향의 바람 15kt, 순간 최대 풍속 25kt
시정: 4000m
고도 1500ft 상공 구름 보통
고도 3300ft 상공 구름 조금, 적란운.
뇌우, 비

TAF: FTTJ 142300Z 1500/1606 22006KT 9999 FEW030 TEMPO 1518/1523 VRB15G25KT 4000 TSRA SCT015 FEW033CB

4,000개 이상의 공항 관측 자료 및 예보 (METAR 및 TAF 보고).

지도상에서 검색 가능한 기상관측소가 노란 점과 빨간 점으로 표시되어 있습니다.

기상관측소 명을 보려면 표시 위로 마우스를 이동하세요.

날씨 관측과 예보를 보려면 클릭하세요.

지도 변경 : 확대하려면 엑스 표시가 있는 녹색 버튼, 축소하려면 빼기 표시가 있는 녹색 버튼, 다음 페이지의 지도를 보려면 녹색 화살표를 클릭하세요.


METAR-TAF: